createdAt,value
2018-12-17T00:01:08.637Z,51.87
2018-12-17T00:03:36.407Z,48.57
2018-12-17T00:06:03.891Z,50.27
2018-12-17T00:08:32.100Z,59.17
2018-12-17T00:11:00.136Z,53.30
2018-12-17T00:13:27.738Z,56.97
2018-12-17T00:15:55.841Z,59.40
2018-12-17T00:18:23.529Z,59.33
2018-12-17T00:20:50.988Z,57.77
2018-12-17T00:23:18.465Z,58.93
2018-12-17T00:25:45.960Z,55.87
2018-12-17T00:28:13.917Z,53.80
2018-12-17T00:30:41.347Z,61.97
2018-12-17T00:33:08.920Z,56.87
2018-12-17T00:35:36.380Z,55.27
2018-12-17T00:38:04.148Z,55.03
2018-12-17T00:40:31.807Z,54.70
2018-12-17T00:42:59.259Z,51.90
2018-12-17T00:45:26.697Z,58.17
2018-12-17T00:47:54.275Z,57.70
2018-12-17T00:50:21.732Z,59.23
2018-12-17T00:52:49.440Z,62.03
2018-12-17T00:55:16.904Z,55.80
2018-12-17T00:57:44.413Z,63.13
2018-12-17T01:00:12.262Z,53.67
2018-12-17T01:02:39.857Z,52.57
2018-12-17T01:05:07.396Z,60.20
2018-12-17T01:07:35.185Z,58.37
2018-12-17T01:10:03.559Z,57.10
2018-12-17T01:12:31.947Z,62.47
2018-12-17T01:14:59.961Z,58.03
2018-12-17T01:17:27.394Z,56.77
2018-12-17T01:19:54.887Z,60.83
2018-12-17T01:22:22.336Z,55.33
2018-12-17T01:24:49.812Z,57.77
2018-12-17T01:27:17.271Z,57.73
2018-12-17T01:29:45.023Z,60.40
2018-12-17T01:32:12.478Z,63.53
2018-12-17T01:34:39.928Z,61.83
2018-12-17T01:37:07.459Z,62.47
2018-12-17T01:39:34.932Z,61.40
2018-12-17T01:42:02.392Z,50.73
2018-12-17T01:44:29.891Z,65.83
2018-12-17T01:46:57.524Z,60.23
2018-12-17T01:49:24.982Z,67.73
2018-12-17T01:51:52.445Z,62.43
2018-12-17T01:54:20.203Z,63.30
2018-12-17T01:56:47.676Z,52.20
2018-12-17T01:59:15.720Z,59.43
2018-12-17T02:01:43.179Z,59.77
2018-12-17T02:04:10.645Z,60.40
2018-12-17T02:06:38.102Z,68.70
2018-12-17T02:09:06.260Z,51.67
2018-12-17T02:11:33.804Z,57.70
2018-12-17T02:14:01.249Z,65.40
2018-12-17T02:16:28.843Z,62.63
2018-12-17T02:18:56.299Z,56.80
2018-12-17T02:21:24.102Z,63.63
2018-12-17T02:23:51.671Z,53.20
2018-12-17T02:26:19.219Z,56.50
2018-12-17T02:28:46.685Z,60.43
2018-12-17T02:31:14.203Z,50.50
2018-12-17T02:33:41.678Z,58.50
2018-12-17T02:36:09.598Z,51.73
2018-12-17T02:38:37.183Z,56.73
2018-12-17T02:41:04.663Z,64.70
2018-12-17T02:43:32.432Z,64.27
2018-12-17T02:46:00.486Z,61.27
2018-12-17T02:48:28.249Z,61.43
2018-12-17T02:50:55.712Z,57.97
2018-12-17T02:53:23.331Z,63.10
2018-12-17T02:55:50.838Z,50.50
2018-12-17T02:58:18.283Z,56.50
2018-12-17T03:00:45.746Z,65.20
2018-12-17T03:03:13.199Z,51.47
2018-12-17T03:05:40.655Z,59.07
2018-12-17T03:08:08.208Z,55.20
2018-12-17T03:10:35.673Z,59.33
2018-12-17T03:13:03.335Z,63.50
2018-12-17T03:15:30.791Z,73.93
2018-12-17T03:17:58.251Z,65.87
2018-12-17T03:20:25.711Z,60.73
2018-12-17T03:22:53.158Z,70.90
2018-12-17T03:25:20.622Z,67.73
2018-12-17T03:27:48.160Z,69.73
2018-12-17T03:30:15.828Z,80.73
2018-12-17T03:32:43.327Z,75.03
2018-12-17T03:35:10.913Z,75.60
2018-12-17T03:37:38.599Z,67.47
2018-12-17T03:40:06.163Z,79.53
2018-12-17T03:42:33.636Z,82.97
2018-12-17T03:45:01.883Z,80.63
2018-12-17T03:47:29.413Z,74.00
2018-12-17T03:49:56.892Z,80.03
2018-12-17T03:52:24.376Z,71.67
2018-12-17T03:54:52.191Z,82.60
2018-12-17T03:57:19.820Z,70.30
2018-12-17T03:59:47.249Z,85.07
2018-12-17T04:02:14.713Z,73.87
2018-12-17T04:04:42.485Z,89.03
2018-12-17T04:07:10.019Z,72.10
2018-12-17T04:09:37.460Z,90.40
2018-12-17T04:12:05.139Z,84.83
2018-12-17T04:14:33.644Z,74.10
2018-12-17T04:17:01.069Z,69.80
2018-12-17T04:19:28.583Z,79.00
2018-12-17T04:21:56.135Z,74.57
2018-12-17T04:24:23.588Z,79.03
2018-12-17T04:26:51.031Z,83.43
2018-12-17T04:29:18.478Z,88.30
2018-12-17T04:31:46.011Z,94.27
2018-12-17T04:34:13.783Z,92.10
2018-12-17T04:36:41.926Z,93.23
2018-12-17T04:39:09.477Z,89.17
2018-12-17T04:41:37.064Z,87.23
2018-12-17T04:44:04.831Z,80.40
2018-12-17T04:46:32.292Z,95.10
2018-12-17T04:48:59.775Z,94.20
2018-12-17T04:51:27.551Z,97.67
2018-12-17T04:53:55.607Z,88.97
2018-12-17T04:56:23.204Z,90.90
2018-12-17T04:58:50.681Z,100.10
2018-12-17T05:01:18.229Z,93.07
2018-12-17T05:03:45.679Z,95.90
2018-12-17T05:06:13.171Z,102.80
2018-12-17T05:08:40.628Z,101.03
2018-12-17T05:11:08.088Z,90.80
2018-12-17T05:13:35.547Z,115.00
2018-12-17T05:16:03.004Z,101.90
2018-12-17T05:18:30.466Z,101.20
2018-12-17T05:20:57.906Z,96.50
2018-12-17T05:23:25.669Z,102.80
2018-12-17T05:25:53.296Z,96.60
2018-12-17T05:28:21.213Z,125.03
2018-12-17T05:30:48.961Z,109.23
2018-12-17T05:33:16.839Z,106.13
2018-12-17T05:35:44.699Z,92.87
2018-12-17T05:38:12.273Z,118.97
2018-12-17T05:40:39.924Z,102.83
2018-12-17T05:43:07.730Z,113.47
2018-12-17T05:45:35.271Z,96.53
2018-12-17T05:48:03.172Z,109.40
2018-12-17T05:50:30.724Z,101.00
2018-12-17T05:52:58.233Z,109.93
2018-12-17T05:55:25.677Z,108.17
2018-12-17T05:57:53.440Z,96.47
2018-12-17T06:00:22.848Z,124.33
2018-12-17T06:02:50.383Z,109.67
2018-12-17T06:05:18.062Z,106.73
2018-12-17T06:07:45.728Z,95.80
2018-12-17T06:10:13.491Z,102.57
2018-12-17T06:12:40.943Z,108.87
2018-12-17T06:15:10.484Z,107.87
2018-12-17T06:17:38.014Z,97.40
2018-12-17T06:20:06.511Z,100.33
2018-12-17T06:22:34.002Z,108.37
2018-12-17T06:25:01.623Z,115.43
2018-12-17T06:27:36.718Z,104.23
2018-12-17T06:30:00.433Z,98.33
2018-12-17T06:32:27.979Z,105.30
2018-12-17T06:34:55.453Z,86.43
2018-12-17T06:37:22.881Z,113.60
2018-12-17T06:39:50.352Z,104.17
2018-12-17T06:42:18.150Z,93.80
2018-12-17T06:44:45.870Z,107.33
2018-12-17T06:47:13.327Z,99.57
2018-12-17T06:49:41.475Z,106.80
2018-12-17T06:52:09.063Z,110.63
2018-12-17T06:54:36.719Z,110.80
2018-12-17T06:57:04.380Z,100.33
2018-12-17T06:59:31.843Z,100.97
2018-12-17T07:01:59.685Z,99.13
2018-12-17T07:04:27.271Z,114.90
2018-12-17T07:06:54.842Z,110.60
2018-12-17T07:09:22.514Z,100.30
2018-12-17T07:11:50.029Z,91.70
2018-12-17T07:14:17.481Z,97.40
2018-12-17T07:16:45.016Z,100.77
2018-12-17T07:19:12.740Z,107.60
2018-12-17T07:21:40.891Z,92.07
2018-12-17T07:24:08.428Z,105.73
2018-12-17T07:26:35.995Z,110.13
2018-12-17T07:29:03.497Z,105.73
2018-12-17T07:31:31.270Z,95.90
2018-12-17T07:33:59.138Z,107.10
2018-12-17T07:36:26.695Z,93.93
2018-12-17T07:38:54.226Z,90.07
2018-12-17T07:41:21.736Z,101.83
2018-12-17T07:43:49.243Z,95.03
2018-12-17T07:46:16.899Z,89.37
2018-12-17T07:48:44.369Z,106.70
2018-12-17T07:51:12.130Z,109.17
2018-12-17T07:53:39.852Z,102.03
2018-12-17T07:56:07.356Z,97.13
2018-12-17T07:58:34.786Z,91.00
2018-12-17T08:01:02.570Z,114.73
2018-12-17T08:03:30.049Z,113.67
2018-12-17T08:05:57.804Z,108.77
2018-12-17T08:08:25.944Z,101.20
2018-12-17T08:10:53.530Z,109.93
2018-12-17T08:13:21.538Z,93.00
2018-12-17T08:15:48.967Z,122.57
2018-12-17T08:18:23.168Z,102.53
2018-12-17T08:20:51.342Z,107.73
2018-12-17T08:23:18.863Z,95.13
2018-12-17T08:25:46.351Z,103.80
2018-12-17T08:28:13.894Z,111.10
2018-12-17T08:30:41.621Z,109.43
2018-12-17T08:33:09.395Z,108.83
2018-12-17T08:35:37.290Z,115.30
2018-12-17T08:38:04.782Z,111.57
2018-12-17T08:40:32.345Z,104.70
2018-12-17T08:43:00.400Z,129.23
2018-12-17T08:45:27.899Z,118.40
2018-12-17T08:47:55.411Z,112.90
2018-12-17T08:50:23.033Z,110.00
2018-12-17T08:52:50.544Z,123.30
2018-12-17T08:55:18.295Z,145.17
2018-12-17T08:57:45.821Z,126.47
2018-12-17T09:00:13.820Z,111.03
2018-12-17T09:02:41.755Z,121.03
2018-12-17T09:05:09.323Z,133.80
2018-12-17T09:07:36.943Z,127.33
2018-12-17T09:10:05.826Z,137.33
2018-12-17T09:12:33.523Z,129.77
2018-12-17T09:15:01.023Z,140.17
2018-12-17T09:17:28.779Z,142.87
2018-12-17T09:19:56.532Z,117.23
2018-12-17T09:22:24.060Z,154.47
2018-12-17T09:24:51.531Z,136.63
2018-12-17T09:27:19.255Z,132.97
2018-12-17T09:29:46.730Z,125.67
2018-12-17T09:32:14.316Z,120.23
2018-12-17T09:34:41.891Z,137.80
2018-12-17T09:37:09.543Z,136.63
2018-12-17T09:39:37.114Z,138.63
2018-12-17T09:42:05.027Z,123.20
2018-12-17T09:44:32.675Z,143.73
2018-12-17T09:47:00.270Z,124.27
2018-12-17T09:49:27.798Z,117.60
2018-12-17T09:51:55.350Z,118.70
2018-12-17T09:54:23.017Z,126.97
2018-12-17T09:56:50.562Z,122.37
2018-12-17T09:59:18.004Z,131.50
2018-12-17T10:01:47.434Z,138.23
2018-12-17T10:04:14.899Z,134.63
2018-12-17T10:06:42.540Z,128.27
2018-12-17T10:09:10.110Z,129.57
2018-12-17T10:11:37.578Z,132.33
2018-12-17T10:14:05.079Z,148.43
2018-12-17T10:16:32.556Z,132.17
2018-12-17T10:19:00.095Z,135.10
2018-12-17T10:21:27.689Z,150.20
2018-12-17T10:23:55.465Z,143.77
2018-12-17T10:26:23.172Z,146.47
2018-12-17T10:28:50.847Z,141.70
2018-12-17T10:31:18.368Z,142.83
2018-12-17T10:33:45.855Z,149.77
2018-12-17T10:36:13.363Z,138.87
2018-12-17T10:38:41.580Z,124.63
2018-12-17T10:41:09.020Z,134.93
2018-12-17T10:43:36.492Z,139.13
2018-12-17T10:46:03.948Z,126.10
2018-12-17T10:48:31.708Z,139.50
2018-12-17T10:50:59.506Z,124.57
2018-12-17T10:53:27.229Z,130.97
2018-12-17T10:55:54.728Z,127.70
2018-12-17T10:58:22.155Z,137.13
2018-12-17T11:00:55.121Z,125.83
2018-12-17T11:03:24.539Z,126.67
2018-12-17T11:05:53.552Z,113.33
2018-12-17T11:08:21.192Z,124.40
2018-12-17T11:10:48.671Z,121.37
2018-12-17T11:13:16.575Z,132.13
2018-12-17T11:15:44.165Z,126.07
2018-12-17T11:18:11.635Z,133.30
2018-12-17T11:20:39.100Z,145.57
2018-12-17T11:23:06.719Z,147.87
2018-12-17T11:25:34.247Z,142.10
2018-12-17T11:28:01.757Z,140.50
2018-12-17T11:30:29.541Z,128.47
2018-12-17T11:32:57.003Z,133.77
2018-12-17T11:35:24.752Z,116.17
2018-12-17T11:37:52.193Z,131.00
2018-12-17T11:40:19.727Z,132.07
2018-12-17T11:42:47.175Z,128.43
2018-12-17T11:45:14.880Z,148.27
2018-12-17T11:47:42.327Z,126.83
2018-12-17T11:50:10.124Z,132.03
2018-12-17T11:52:37.880Z,141.33
2018-12-17T11:55:05.339Z,161.60
2018-12-17T11:57:45.231Z,138.93
2018-12-17T12:00:12.720Z,144.10
2018-12-17T12:02:40.167Z,131.30
2018-12-17T12:05:07.747Z,106.47
2018-12-17T12:07:35.203Z,129.17
2018-12-17T12:10:03.351Z,122.53
2018-12-17T12:12:31.059Z,126.00
2018-12-17T12:14:58.735Z,124.07
2018-12-17T12:17:26.196Z,114.37
2018-12-17T12:19:53.701Z,120.03
2018-12-17T12:22:21.292Z,112.97
2018-12-17T12:24:48.953Z,105.00
2018-12-17T12:27:16.408Z,92.07
2018-12-17T12:29:44.213Z,98.07
2018-12-17T12:32:11.699Z,95.90
2018-12-17T12:34:39.263Z,98.17
2018-12-17T12:37:06.732Z,117.87
2018-12-17T12:39:34.173Z,107.13
2018-12-17T12:42:01.626Z,97.43
2018-12-17T12:44:29.074Z,104.57
2018-12-17T12:46:56.513Z,92.37
2018-12-17T12:49:24.277Z,97.97
2018-12-17T12:51:52.732Z,106.63
2018-12-17T12:54:20.569Z,94.07
2018-12-17T12:56:48.086Z,103.07
2018-12-17T12:59:15.735Z,103.93
2018-12-17T13:01:43.171Z,99.83
2018-12-17T13:04:10.652Z,109.97
2018-12-17T13:06:38.310Z,112.73
2018-12-17T13:09:07.147Z,106.03
2018-12-17T13:11:34.783Z,108.50
2018-12-17T13:14:02.272Z,96.13
2018-12-17T13:16:29.729Z,102.67
2018-12-17T13:18:57.175Z,104.07
2018-12-17T13:21:24.660Z,122.07
2018-12-17T13:23:52.178Z,112.03
2018-12-17T13:26:19.625Z,98.93
2018-12-17T13:28:47.084Z,107.80
2018-12-17T13:31:14.913Z,93.93
2018-12-17T13:33:42.580Z,103.37
2018-12-17T13:36:10.088Z,100.53
2018-12-17T13:38:37.842Z,106.93
2018-12-17T13:41:05.612Z,108.97
2018-12-17T13:43:33.228Z,104.00
2018-12-17T13:46:00.819Z,103.93
2018-12-17T13:48:28.579Z,102.63
2018-12-17T13:50:57.928Z,102.60
2018-12-17T13:53:31.284Z,93.83
2018-12-17T13:55:58.847Z,89.60
2018-12-17T13:58:26.472Z,103.90
2018-12-17T14:00:54.164Z,111.30
2018-12-17T14:03:21.615Z,113.83
2018-12-17T14:05:49.244Z,99.57
2018-12-17T14:08:16.839Z,103.57
2018-12-17T14:10:50.979Z,101.23
2018-12-17T14:13:22.191Z,105.53
2018-12-17T14:15:52.147Z,100.60
2018-12-17T14:18:26.111Z,97.43
2018-12-17T14:20:59.196Z,84.17
2018-12-17T14:23:26.878Z,88.87
2018-12-17T14:25:54.420Z,97.73
2018-12-17T14:28:22.159Z,106.43
2018-12-17T14:30:49.746Z,79.73
2018-12-17T14:33:17.216Z,94.30
2018-12-17T14:35:50.366Z,82.87
2018-12-17T14:38:17.840Z,100.53
2018-12-17T14:40:45.419Z,95.77
2018-12-17T14:43:13.180Z,87.13
2018-12-17T14:45:40.635Z,90.70
2018-12-17T14:48:08.387Z,89.97
2018-12-17T14:50:35.843Z,94.30
2018-12-17T14:53:03.625Z,92.23
2018-12-17T14:55:31.105Z,106.70
2018-12-17T14:57:58.839Z,97.57
2018-12-17T15:00:26.310Z,99.60
2018-12-17T15:02:54.082Z,78.00
2018-12-17T15:05:21.628Z,97.00
2018-12-17T15:07:49.209Z,99.50
2018-12-17T15:10:16.732Z,86.27
2018-12-17T15:12:44.190Z,98.20
2018-12-17T15:15:11.948Z,94.40
2018-12-17T15:17:39.412Z,96.83
2018-12-17T15:20:09.398Z,82.03
2018-12-17T15:22:37.000Z,97.70
2018-12-17T15:25:07.633Z,90.53
2018-12-17T15:27:35.174Z,90.20
2018-12-17T15:30:02.724Z,98.93
2018-12-17T15:32:30.271Z,89.87
2018-12-17T15:34:57.723Z,82.70
2018-12-17T15:37:25.213Z,87.63
2018-12-17T15:39:52.680Z,91.40
2018-12-17T15:42:21.908Z,95.73
2018-12-17T15:44:49.745Z,79.53
2018-12-17T15:47:17.358Z,81.67
2018-12-17T15:49:44.833Z,89.20
2018-12-17T15:52:12.284Z,79.10
2018-12-17T15:54:39.744Z,86.13
2018-12-17T15:57:07.317Z,88.57
2018-12-17T15:59:35.199Z,110.73
2018-12-17T16:02:02.842Z,82.17
2018-12-17T16:04:30.308Z,74.93
2018-12-17T16:06:57.990Z,90.63
2018-12-17T16:09:25.528Z,71.33
2018-12-17T16:11:53.192Z,73.63
2018-12-17T16:14:20.643Z,73.37
2018-12-17T16:16:48.097Z,74.40
2018-12-17T16:19:15.649Z,80.40
2018-12-17T16:21:43.104Z,68.83
2018-12-17T16:24:10.871Z,69.47
2018-12-17T16:26:38.332Z,74.20
2018-12-17T16:29:06.082Z,79.67
2018-12-17T16:31:33.573Z,83.63
2018-12-17T16:34:01.308Z,75.70
2018-12-17T16:36:29.077Z,66.77
2018-12-17T16:38:56.519Z,72.60
2018-12-17T16:41:23.977Z,63.10
2018-12-17T16:43:51.423Z,64.17
2018-12-17T16:46:19.209Z,66.83
2018-12-17T16:48:46.691Z,67.20
2018-12-17T16:51:14.454Z,78.70
2018-12-17T16:53:42.200Z,71.13
2018-12-17T16:56:09.801Z,60.13
2018-12-17T16:58:37.403Z,71.37
2018-12-17T17:01:04.876Z,69.67
2018-12-17T17:03:32.542Z,74.97
2018-12-17T17:06:00.019Z,69.93
2018-12-17T17:08:27.459Z,74.70
2018-12-17T17:10:54.903Z,61.77
2018-12-17T17:13:22.515Z,65.23
2018-12-17T17:15:49.972Z,63.57
2018-12-17T17:18:17.680Z,66.90
2018-12-17T17:20:45.142Z,64.97
2018-12-17T17:23:12.904Z,64.37
2018-12-17T17:25:40.436Z,66.97
2018-12-17T17:28:07.893Z,64.63
2018-12-17T17:30:35.596Z,61.03
2018-12-17T17:33:03.065Z,70.87
2018-12-17T17:35:30.995Z,69.40
2018-12-17T17:37:58.501Z,64.20
2018-12-17T17:40:25.981Z,63.87
2018-12-17T17:42:53.441Z,68.30
2018-12-17T17:45:20.900Z,63.33
2018-12-17T17:47:48.362Z,59.83
2018-12-17T17:50:15.849Z,50.80
2018-12-17T17:52:43.311Z,65.00
2018-12-17T17:55:11.680Z,66.63
2018-12-17T17:57:39.144Z,70.13
2018-12-17T18:00:09.216Z,78.43
2018-12-17T18:02:36.684Z,59.57
2018-12-17T18:05:05.543Z,71.30
2018-12-17T18:07:33.127Z,63.33
2018-12-17T18:10:00.567Z,63.77
2018-12-17T18:12:28.043Z,66.50
2018-12-17T18:14:55.529Z,62.87
2018-12-17T18:17:23.103Z,70.00
2018-12-17T18:19:50.572Z,70.10
2018-12-17T18:22:18.667Z,72.83
2018-12-17T18:24:46.996Z,58.00
2018-12-17T18:27:14.536Z,63.17
2018-12-17T18:29:42.076Z,65.33
2018-12-17T18:32:09.666Z,75.17
2018-12-17T18:34:37.440Z,66.53
2018-12-17T18:37:04.915Z,66.03
2018-12-17T18:39:32.558Z,68.50
2018-12-17T18:42:00.099Z,68.40
2018-12-17T18:44:27.557Z,73.00
2018-12-17T18:46:56.551Z,55.27
2018-12-17T18:49:24.052Z,65.23
2018-12-17T18:51:51.507Z,65.20
2018-12-17T18:54:19.230Z,66.40
2018-12-17T18:56:46.995Z,56.30
2018-12-17T18:59:14.472Z,59.97
2018-12-17T19:01:42.147Z,84.93
2018-12-17T19:04:09.682Z,61.63
2018-12-17T19:06:37.440Z,59.70
2018-12-17T19:09:06.212Z,57.13
2018-12-17T19:11:33.873Z,60.63
2018-12-17T19:14:01.319Z,52.73
2018-12-17T19:16:28.762Z,53.73
2018-12-17T19:18:56.236Z,55.50
2018-12-17T19:21:24.395Z,71.50
2018-12-17T19:23:52.019Z,56.30
2018-12-17T19:26:19.538Z,56.40
2018-12-17T19:28:47.019Z,56.90
2018-12-17T19:31:14.937Z,53.27
2018-12-17T19:33:42.372Z,45.50
2018-12-17T19:36:09.836Z,63.37
2018-12-17T19:38:37.373Z,46.30
2018-12-17T19:41:04.934Z,49.57
2018-12-17T19:43:32.387Z,51.40
2018-12-17T19:45:59.824Z,56.63
2018-12-17T19:48:27.279Z,58.80
2018-12-17T19:50:54.730Z,62.20
2018-12-17T19:53:22.188Z,60.27
2018-12-17T19:55:49.656Z,52.03
2018-12-17T19:58:17.100Z,43.67
2018-12-17T20:00:44.591Z,43.83
2018-12-17T20:03:12.354Z,61.03
2018-12-17T20:05:40.087Z,56.93
2018-12-17T20:08:07.531Z,57.63
2018-12-17T20:10:35.161Z,49.80
2018-12-17T20:13:02.725Z,55.97
2018-12-17T20:15:30.459Z,52.73
2018-12-17T20:17:57.903Z,53.70
2018-12-17T20:20:25.384Z,58.10
2018-12-17T20:22:52.848Z,65.40
2018-12-17T20:25:20.344Z,56.00
2018-12-17T20:27:48.101Z,59.23
2018-12-17T20:30:15.567Z,63.87
2018-12-17T20:32:43.329Z,56.87
2018-12-17T20:35:10.879Z,49.43
2018-12-17T20:37:38.545Z,59.57
2018-12-17T20:40:07.015Z,56.00
2018-12-17T20:42:34.660Z,59.83
2018-12-17T20:45:02.110Z,53.10
2018-12-17T20:47:29.571Z,59.03
2018-12-17T20:49:57.038Z,55.17
2018-12-17T20:52:25.920Z,54.80
2018-12-17T20:54:53.664Z,63.83
2018-12-17T20:57:21.275Z,65.83
2018-12-17T20:59:48.727Z,61.33
2018-12-17T21:02:16.435Z,57.40
2018-12-17T21:04:43.948Z,60.30
2018-12-17T21:07:11.417Z,59.87
2018-12-17T21:09:39.167Z,58.13
2018-12-17T21:12:07.271Z,53.00
2018-12-17T21:14:35.079Z,62.83
2018-12-17T21:17:03.685Z,73.63
2018-12-17T21:19:31.315Z,51.73
2018-12-17T21:21:58.907Z,58.57
2018-12-17T21:24:26.351Z,61.63
2018-12-17T21:26:53.793Z,54.17
2018-12-17T21:29:21.284Z,51.37
2018-12-17T21:31:49.420Z,63.70
2018-12-17T21:34:16.899Z,66.13
2018-12-17T21:36:44.594Z,62.90
2018-12-17T21:39:12.065Z,61.57
2018-12-17T21:41:40.371Z,65.27
2018-12-17T21:44:07.869Z,61.93
2018-12-17T21:46:35.533Z,62.13
2018-12-17T21:49:03.075Z,57.53
2018-12-17T21:51:30.540Z,62.03
2018-12-17T21:53:57.983Z,69.67
2018-12-17T21:56:25.448Z,65.63
2018-12-17T21:58:52.916Z,109.53
2018-12-17T22:01:21.852Z,75.77
2018-12-17T22:03:49.300Z,54.77
2018-12-17T22:06:16.808Z,63.93
2018-12-17T22:08:44.291Z,59.50
2018-12-17T22:11:12.022Z,62.67
2018-12-17T22:13:39.491Z,78.37
2018-12-17T22:16:06.956Z,68.90
2018-12-17T22:18:34.713Z,89.90
2018-12-17T22:21:02.160Z,67.60
2018-12-17T22:23:29.941Z,64.17
2018-12-17T22:25:57.391Z,65.80
2018-12-17T22:28:25.019Z,55.83
2018-12-17T22:30:52.507Z,66.40
2018-12-17T22:33:20.292Z,62.93
2018-12-17T22:35:48.027Z,57.77
2018-12-17T22:38:15.500Z,56.07
2018-12-17T22:40:42.944Z,58.10
2018-12-17T22:43:10.493Z,56.23
2018-12-17T22:45:37.960Z,60.33
2018-12-17T22:48:05.424Z,68.70
2018-12-17T22:50:32.878Z,58.80
2018-12-17T22:53:00.320Z,56.00
2018-12-17T22:55:27.776Z,52.90
2018-12-17T22:57:55.443Z,62.60
2018-12-17T23:00:23.534Z,61.73
2018-12-17T23:02:51.070Z,58.77
2018-12-17T23:05:18.536Z,66.47
2018-12-17T23:07:46.002Z,85.50
2018-12-17T23:10:25.424Z,61.20
2018-12-17T23:13:05.168Z,57.50
2018-12-17T23:15:44.596Z,69.20
2018-12-17T23:18:11.620Z,60.20
2018-12-17T23:20:42.000Z,66.53
2018-12-17T23:23:10.351Z,66.70
2018-12-17T23:25:37.812Z,64.40
2018-12-17T23:28:07.415Z,55.90
2018-12-17T23:30:34.859Z,65.63
2018-12-17T23:33:02.633Z,63.80
2018-12-17T23:35:30.084Z,69.27
2018-12-17T23:37:57.539Z,70.83
2018-12-17T23:40:24.992Z,64.67
2018-12-17T23:42:52.451Z,74.57
2018-12-17T23:45:20.377Z,72.57
2018-12-17T23:47:47.876Z,77.97
2018-12-17T23:50:15.337Z,59.13
2018-12-17T23:52:42.807Z,63.30
2018-12-17T23:55:10.324Z,70.70
2018-12-17T23:57:37.783Z,64.03
